PWSweather.com
Personal Weather Stations
Station Observations
VPOKROGLO
Kal Nad Kanalom, PrimorskaSI

Kal Nad KanalomPrimorskaSI

Lat: 46.072, Lon: 13.734

Elevation: 2526

Station Type: WS-2355

http://www.okroglovreme.com

High Low Average
Temperature 63.1°F17.3°F 43.0°F6.1°F 52.7°F11.5°F
Dew Point 48.8°F9.3°F 37.6°F3.1°F 40.6°F4.8°F
Winds 5.2 mph S8.4 mph S Calm Calm 1.9 mph 3.1 mph
Wind Gusts 16.6 mph26.7 mph -- 6.9 mph11.1 mph
Humidity 86% 47% 65%
Pressure 29.89 in1012.20 in 29.68 in1005.10 in -
Precipitation 0.00 in0.00 in - -
Hour Temp Dew Point Humidity Winds Wind Gusts Pressure Precip Precip Rate Daily Precip Total
12:00 AM 46.0°F7.8°C 38.9°F3.8°C 76% Calm Calm -- 29.69 in1005.4 mb 0.00 in0.0 mm 0.00 in/hr0.0 mm/hr 0.00 in0.0 mm
12:15 AM 46.0°F7.8°C 38.9°F3.8°C 76% Calm Calm -- 29.68 in1005.1 mb 0.00 in0.0 mm 0.00 in/hr0.0 mm/hr 0.00 in0.0 mm
12:30 AM 46.6°F8.1°C 39.4°F4.1°C 76% Calm Calm 0.7 mph1.1 kmh 29.68 in1005.1 mb 0.00 in0.0 mm 0.00 in/hr0.0 mm/hr 0.00 in0.0 mm
12:45 AM 46.4°F8.0°C 39.2°F4.0°C 76% Calm Calm -- 29.68 in1005.1 mb 0.00 in0.0 mm 0.00 in/hr0.0 mm/hr 0.00 in0.0 mm
01:00 AM 47.5°F8.6°C 39.9°F4.4°C 75% 0.3 mph SW0.5 kmh SW 2.9 mph4.7 kmh 29.69 in1005.4 mb 0.00 in0.0 mm 0.00 in/hr0.0 mm/hr 0.00 in0.0 mm
01:15 AM 49.3°F9.6°C 40.3°F4.6°C 71% 0.4 mph WSW0.6 kmh WSW 3.1 mph5.0 kmh 29.69 in1005.4 mb 0.00 in0.0 mm 0.00 in/hr0.0 mm/hr 0.00 in0.0 mm
01:30 AM 50.0°F10.0°C 40.2°F4.6°C 69% 1.0 mph WSW1.6 kmh WSW 3.6 mph5.8 kmh 29.70 in1005.8 mb 0.00 in0.0 mm 0.00 in/hr0.0 mm/hr 0.00 in0.0 mm
01:45 AM 50.5°F10.3°C 40.0°F4.4°C 67% 1.5 mph SW2.4 kmh SW 9.6 mph15.4 kmh 29.70 in1005.8 mb 0.00 in0.0 mm 0.00 in/hr0.0 mm/hr 0.00 in0.0 mm
02:00 AM 51.1°F10.6°C 40.1°F4.5°C 66% 1.0 mph W1.6 kmh W 3.4 mph5.5 kmh 29.70 in1005.8 mb 0.00 in0.0 mm 0.00 in/hr0.0 mm/hr 0.00 in0.0 mm
02:15 AM 51.3°F10.7°C 40.3°F4.6°C 66% 0.5 mph S0.8 kmh S 3.4 mph5.5 kmh 29.70 in1005.8 mb 0.00 in0.0 mm 0.00 in/hr0.0 mm/hr 0.00 in0.0 mm
02:30 AM 51.6°F10.9°C 39.8°F4.3°C 64% 1.2 mph NNE1.9 kmh NNE 6.5 mph10.5 kmh 29.70 in1005.8 mb 0.00 in0.0 mm 0.00 in/hr0.0 mm/hr 0.00 in0.0 mm
02:45 AM 52.0°F11.1°C 40.2°F4.6°C 64% 0.1 mph N0.2 kmh N 1.8 mph2.9 kmh 29.70 in1005.8 mb 0.00 in0.0 mm 0.00 in/hr0.0 mm/hr 0.00 in0.0 mm
03:00 AM 52.0°F11.1°C 40.2°F4.6°C 64% 0.9 mph NNW1.4 kmh NNW 4.5 mph7.2 kmh 29.70 in1005.8 mb 0.00 in0.0 mm 0.00 in/hr0.0 mm/hr 0.00 in0.0 mm
03:15 AM 52.5°F11.4°C 39.9°F4.4°C 62% 1.7 mph N2.7 kmh N 5.6 mph9.0 kmh 29.70 in1005.8 mb 0.00 in0.0 mm 0.00 in/hr0.0 mm/hr 0.00 in0.0 mm
03:30 AM 52.9°F11.6°C 40.2°F4.6°C 62% 0.2 mph NW0.3 kmh NW 2.2 mph3.5 kmh 29.70 in1005.8 mb 0.00 in0.0 mm 0.00 in/hr0.0 mm/hr 0.00 in0.0 mm
03:45 AM 52.7°F11.5°C 40.0°F4.4°C 62% 0.2 mph N0.3 kmh N 2.0 mph3.2 kmh 29.70 in1005.8 mb 0.00 in0.0 mm 0.00 in/hr0.0 mm/hr 0.00 in0.0 mm
04:00 AM 52.9°F11.6°C 39.8°F4.3°C 61% 1.2 mph N1.9 kmh N 6.3 mph10.1 kmh 29.70 in1005.8 mb 0.00 in0.0 mm 0.00 in/hr0.0 mm/hr 0.00 in0.0 mm
04:15 AM 53.2°F11.8°C 39.7°F4.3°C 60% 0.6 mph WSW1.0 kmh WSW 2.9 mph4.7 kmh 29.70 in1005.8 mb 0.00 in0.0 mm 0.00 in/hr0.0 mm/hr 0.00 in0.0 mm
04:30 AM 52.9°F11.6°C 39.4°F4.1°C 60% 0.7 mph SW1.1 kmh SW 4.9 mph7.9 kmh 29.70 in1005.8 mb 0.00 in0.0 mm 0.00 in/hr0.0 mm/hr 0.00 in0.0 mm
04:45 AM 52.5°F11.4°C 38.6°F3.7°C 59% 1.9 mph SW3.1 kmh SW 5.8 mph9.3 kmh 29.70 in1005.8 mb 0.00 in0.0 mm 0.00 in/hr0.0 mm/hr 0.00 in0.0 mm
05:00 AM 52.3°F11.3°C 38.4°F3.6°C 59% 2.0 mph WSW3.2 kmh WSW 9.2 mph14.8 kmh 29.70 in1005.8 mb 0.00 in0.0 mm 0.00 in/hr0.0 mm/hr 0.00 in0.0 mm
05:15 AM 52.5°F11.4°C 38.6°F3.7°C 59% 1.8 mph N2.9 kmh N 7.2 mph11.6 kmh 29.70 in1005.8 mb 0.00 in0.0 mm 0.00 in/hr0.0 mm/hr 0.00 in0.0 mm
05:30 AM 52.9°F11.6°C 38.9°F3.8°C 59% 0.6 mph WSW1.0 kmh WSW 3.4 mph5.5 kmh 29.70 in1005.8 mb 0.00 in0.0 mm 0.00 in/hr0.0 mm/hr 0.00 in0.0 mm
05:45 AM 52.5°F11.4°C 38.6°F3.7°C 59% 0.7 mph N1.1 kmh N 3.8 mph6.1 kmh 29.71 in1006.1 mb 0.00 in0.0 mm 0.00 in/hr0.0 mm/hr 0.00 in0.0 mm
06:00 AM 52.9°F11.6°C 38.1°F3.4°C 57% 1.2 mph NE1.9 kmh NE 4.7 mph7.6 kmh 29.70 in1005.8 mb 0.00 in0.0 mm 0.00 in/hr0.0 mm/hr 0.00 in0.0 mm
06:15 AM 53.2°F11.8°C 38.4°F3.6°C 57% 2.2 mph N3.5 kmh N 6.9 mph11.1 kmh 29.72 in1006.4 mb 0.00 in0.0 mm 0.00 in/hr0.0 mm/hr 0.00 in0.0 mm
06:30 AM 53.2°F11.8°C 37.9°F3.3°C 56% 2.5 mph N4.0 kmh N 10.7 mph17.2 kmh 29.71 in1006.1 mb 0.00 in0.0 mm 0.00 in/hr0.0 mm/hr 0.00 in0.0 mm
06:45 AM 53.2°F11.8°C 37.9°F3.3°C 56% 1.5 mph NNE2.4 kmh NNE 10.5 mph16.9 kmh 29.71 in1006.1 mb 0.00 in0.0 mm 0.00 in/hr0.0 mm/hr 0.00 in0.0 mm
07:00 AM 53.4°F11.9°C 37.6°F3.1°C 55% 3.5 mph N5.6 kmh N 11.2 mph18.0 kmh 29.72 in1006.4 mb 0.00 in0.0 mm 0.00 in/hr0.0 mm/hr 0.00 in0.0 mm
07:15 AM 53.4°F11.9°C 37.6°F3.1°C 55% 1.8 mph NNW2.9 kmh NNW 5.6 mph9.0 kmh 29.72 in1006.4 mb 0.00 in0.0 mm 0.00 in/hr0.0 mm/hr 0.00 in0.0 mm
07:30 AM 53.4°F11.9°C 37.6°F3.1°C 55% 1.9 mph NW3.1 kmh NW 7.6 mph12.2 kmh 29.73 in1006.8 mb 0.00 in0.0 mm 0.00 in/hr0.0 mm/hr 0.00 in0.0 mm
07:45 AM 53.4°F11.9°C 37.6°F3.1°C 55% 1.4 mph NNW2.3 kmh NNW 5.8 mph9.3 kmh 29.73 in1006.8 mb 0.00 in0.0 mm 0.00 in/hr0.0 mm/hr 0.00 in0.0 mm
08:00 AM 53.4°F11.9°C 37.6°F3.1°C 55% 2.0 mph SSW3.2 kmh SSW 10.3 mph16.6 kmh 29.74 in1007.1 mb 0.00 in0.0 mm 0.00 in/hr0.0 mm/hr 0.00 in0.0 mm
08:15 AM 53.4°F11.9°C 38.1°F3.4°C 56% 1.7 mph SSW2.7 kmh SSW 8.1 mph13.0 kmh 29.74 in1007.1 mb 0.00 in0.0 mm 0.00 in/hr0.0 mm/hr 0.00 in0.0 mm
08:30 AM 54.0°F12.2°C 38.6°F3.7°C 56% 0.9 mph N1.4 kmh N 5.1 mph8.2 kmh 29.74 in1007.1 mb 0.00 in0.0 mm 0.00 in/hr0.0 mm/hr 0.00 in0.0 mm
08:45 AM 54.5°F12.5°C 39.1°F3.9°C 56% 0.1 mph SSW0.2 kmh SSW 2.0 mph3.2 kmh 29.75 in1007.5 mb 0.00 in0.0 mm 0.00 in/hr0.0 mm/hr 0.00 in0.0 mm
09:00 AM 55.2°F12.9°C 39.8°F4.3°C 56% 0.4 mph WNW0.6 kmh WNW 5.1 mph8.2 kmh 29.76 in1007.8 mb 0.00 in0.0 mm 0.00 in/hr0.0 mm/hr 0.00 in0.0 mm
09:15 AM 55.8°F13.2°C 40.7°F4.8°C 57% 0.1 mph SE0.2 kmh SE 2.0 mph3.2 kmh 29.77 in1008.1 mb 0.00 in0.0 mm 0.00 in/hr0.0 mm/hr 0.00 in0.0 mm
09:30 AM 56.1°F13.4°C 40.6°F4.8°C 56% 0.6 mph WNW1.0 kmh WNW 5.6 mph9.0 kmh 29.77 in1008.1 mb 0.00 in0.0 mm 0.00 in/hr0.0 mm/hr 0.00 in0.0 mm
09:45 AM 56.8°F13.8°C 40.8°F4.9°C 55% 0.6 mph NW1.0 kmh NW 2.5 mph4.0 kmh 29.78 in1008.5 mb 0.00 in0.0 mm 0.00 in/hr0.0 mm/hr 0.00 in0.0 mm
10:00 AM 57.0°F13.9°C 41.0°F5.0°C 55% 0.3 mph W0.5 kmh W 2.5 mph4.0 kmh 29.78 in1008.5 mb 0.00 in0.0 mm 0.00 in/hr0.0 mm/hr 0.00 in0.0 mm
10:15 AM 57.6°F14.2°C 41.5°F5.3°C 55% 0.6 mph NNW1.0 kmh NNW 3.6 mph5.8 kmh 29.79 in1008.8 mb 0.00 in0.0 mm 0.00 in/hr0.0 mm/hr 0.00 in0.0 mm
10:30 AM 57.9°F14.4°C 41.4°F5.2°C 54% 1.0 mph NW1.6 kmh NW 3.1 mph5.0 kmh 29.79 in1008.8 mb 0.00 in0.0 mm 0.00 in/hr0.0 mm/hr 0.00 in0.0 mm
10:45 AM 58.1°F14.5°C 42.0°F5.6°C 55% 0.7 mph NW1.1 kmh NW 4.3 mph6.9 kmh 29.79 in1008.8 mb 0.00 in0.0 mm 0.00 in/hr0.0 mm/hr 0.00 in0.0 mm
11:00 AM 58.3°F14.6°C 41.7°F5.4°C 54% 1.9 mph NNW3.1 kmh NNW 8.9 mph14.3 kmh 29.79 in1008.8 mb 0.00 in0.0 mm 0.00 in/hr0.0 mm/hr 0.00 in0.0 mm
11:15 AM 59.7°F15.4°C 42.1°F5.6°C 52% 1.7 mph N2.7 kmh N 6.7 mph10.8 kmh 29.79 in1008.8 mb 0.00 in0.0 mm 0.00 in/hr0.0 mm/hr 0.00 in0.0 mm
11:30 AM 60.4°F15.8°C 41.7°F5.4°C 50% 2.3 mph N3.7 kmh N 6.5 mph10.5 kmh 29.79 in1008.8 mb 0.00 in0.0 mm 0.00 in/hr0.0 mm/hr 0.00 in0.0 mm
11:45 AM 60.6°F15.9°C 41.3°F5.2°C 49% 2.0 mph N3.2 kmh N 10.1 mph16.3 kmh 29.79 in1008.8 mb 0.00 in0.0 mm 0.00 in/hr0.0 mm/hr 0.00 in0.0 mm
12:00 PM 61.0°F16.1°C 41.7°F5.4°C 49% 1.6 mph SSW2.6 kmh SSW 6.0 mph9.7 kmh 29.79 in1008.8 mb 0.00 in0.0 mm 0.00 in/hr0.0 mm/hr 0.00 in0.0 mm
12:15 PM 61.2°F16.2°C 41.3°F5.2°C 48% 2.9 mph N4.7 kmh N 12.8 mph20.6 kmh 29.79 in1008.8 mb 0.00 in0.0 mm 0.00 in/hr0.0 mm/hr 0.00 in0.0 mm
12:30 PM 61.3°F16.3°C 42.0°F5.6°C 49% 1.9 mph NE3.1 kmh NE 8.5 mph13.7 kmh 29.78 in1008.5 mb 0.00 in0.0 mm 0.00 in/hr0.0 mm/hr 0.00 in0.0 mm
12:45 PM 61.5°F16.4°C 41.1°F5.1°C 47% 2.7 mph NNE4.3 kmh NNE 7.6 mph12.2 kmh 29.79 in1008.8 mb 0.00 in0.0 mm 0.00 in/hr0.0 mm/hr 0.00 in0.0 mm
01:00 PM 61.7°F16.5°C 41.8°F5.4°C 48% 2.3 mph N3.7 kmh N 6.5 mph10.5 kmh 29.78 in1008.5 mb 0.00 in0.0 mm 0.00 in/hr0.0 mm/hr 0.00 in0.0 mm
01:15 PM 62.2°F16.8°C 41.7°F5.4°C 47% 2.3 mph N3.7 kmh N 7.4 mph11.9 kmh 29.78 in1008.5 mb 0.00 in0.0 mm 0.00 in/hr0.0 mm/hr 0.00 in0.0 mm
01:30 PM 62.2°F16.8°C 41.7°F5.4°C 47% 2.9 mph N4.7 kmh N 7.6 mph12.2 kmh 29.78 in1008.5 mb 0.00 in0.0 mm 0.00 in/hr0.0 mm/hr 0.00 in0.0 mm
01:45 PM 62.4°F16.9°C 41.9°F5.5°C 47% 2.0 mph N3.2 kmh N 6.5 mph10.5 kmh 29.78 in1008.5 mb 0.00 in0.0 mm 0.00 in/hr0.0 mm/hr 0.00 in0.0 mm
02:00 PM 63.1°F17.3°C 42.6°F5.9°C 47% 2.3 mph N3.7 kmh N 8.5 mph13.7 kmh 29.78 in1008.5 mb 0.00 in0.0 mm 0.00 in/hr0.0 mm/hr 0.00 in0.0 mm
02:15 PM 63.1°F17.3°C 44.7°F7.1°C 51% 1.7 mph NNW2.7 kmh NNW 4.5 mph7.2 kmh 29.79 in1008.8 mb 0.00 in0.0 mm 0.00 in/hr0.0 mm/hr 0.00 in0.0 mm
02:30 PM 62.8°F17.1°C 42.8°F6.0°C 48% 2.6 mph N4.2 kmh N 9.4 mph15.1 kmh 29.79 in1008.8 mb 0.00 in0.0 mm 0.00 in/hr0.0 mm/hr 0.00 in0.0 mm
02:45 PM 62.4°F16.9°C 44.6°F7.0°C 52% 1.5 mph N2.4 kmh N 5.4 mph8.7 kmh 29.79 in1008.8 mb 0.00 in0.0 mm 0.00 in/hr0.0 mm/hr 0.00 in0.0 mm
03:00 PM 62.2°F16.8°C 45.9°F7.7°C 55% 1.0 mph NW1.6 kmh NW 5.1 mph8.2 kmh 29.79 in1008.8 mb 0.00 in0.0 mm 0.00 in/hr0.0 mm/hr 0.00 in0.0 mm
03:15 PM 61.5°F16.4°C 47.1°F8.4°C 59% 1.1 mph NW1.8 kmh NW 4.0 mph6.4 kmh 29.79 in1008.8 mb 0.00 in0.0 mm 0.00 in/hr0.0 mm/hr 0.00 in0.0 mm
03:30 PM 61.5°F16.4°C 48.4°F9.1°C 62% 0.8 mph NW1.3 kmh NW 3.8 mph6.1 kmh 29.80 in1009.1 mb 0.00 in0.0 mm 0.00 in/hr0.0 mm/hr 0.00 in0.0 mm
03:45 PM 61.0°F16.1°C 48.7°F9.3°C 64% 0.7 mph NW1.1 kmh NW 4.0 mph6.4 kmh 29.80 in1009.1 mb 0.00 in0.0 mm 0.00 in/hr0.0 mm/hr 0.00 in0.0 mm
04:00 PM 60.6°F15.9°C 48.8°F9.3°C 65% 1.2 mph NW1.9 kmh NW 4.0 mph6.4 kmh 29.80 in1009.1 mb 0.00 in0.0 mm 0.00 in/hr0.0 mm/hr 0.00 in0.0 mm
04:15 PM 59.2°F15.1°C 48.2°F9.0°C 67% 1.7 mph W2.7 kmh W 5.6 mph9.0 kmh 29.81 in1009.5 mb 0.00 in0.0 mm 0.00 in/hr0.0 mm/hr 0.00 in0.0 mm
04:30 PM 59.0°F15.0°C 46.4°F8.0°C 63% 0.4 mph S0.6 kmh S 2.5 mph4.0 kmh 29.81 in1009.5 mb 0.00 in0.0 mm 0.00 in/hr0.0 mm/hr 0.00 in0.0 mm
04:45 PM 58.6°F14.8°C 44.8°F7.1°C 60% 0.5 mph S0.8 kmh S 3.4 mph5.5 kmh 29.81 in1009.5 mb 0.00 in0.0 mm 0.00 in/hr0.0 mm/hr 0.00 in0.0 mm
05:00 PM 56.8°F13.8°C 43.5°F6.4°C 61% 2.3 mph S3.7 kmh S 7.6 mph12.2 kmh 29.81 in1009.5 mb 0.00 in0.0 mm 0.00 in/hr0.0 mm/hr 0.00 in0.0 mm
05:15 PM 53.4°F11.9°C 41.5°F5.3°C 64% 2.4 mph SSW3.9 kmh SSW 8.9 mph14.3 kmh 29.82 in1009.8 mb 0.00 in0.0 mm 0.00 in/hr0.0 mm/hr 0.00 in0.0 mm
05:30 PM 50.9°F10.5°C 40.7°F4.8°C 68% 1.3 mph SW2.1 kmh SW 4.0 mph6.4 kmh 29.83 in1010.2 mb 0.00 in0.0 mm 0.00 in/hr0.0 mm/hr 0.00 in0.0 mm
05:45 PM 49.3°F9.6°C 40.3°F4.6°C 71% 2.8 mph SSW4.5 kmh SSW 8.5 mph13.7 kmh 29.83 in1010.2 mb 0.00 in0.0 mm 0.00 in/hr0.0 mm/hr 0.00 in0.0 mm
06:00 PM 47.8°F8.8°C 40.0°F4.4°C 74% 2.6 mph SSW4.2 kmh SSW 6.7 mph10.8 kmh 29.84 in1010.5 mb 0.00 in0.0 mm 0.00 in/hr0.0 mm/hr 0.00 in0.0 mm
06:15 PM 46.8°F8.2°C 39.6°F4.2°C 76% 3.1 mph SW5.0 kmh SW 8.9 mph14.3 kmh 29.84 in1010.5 mb 0.00 in0.0 mm 0.00 in/hr0.0 mm/hr 0.00 in0.0 mm
06:30 PM 46.0°F7.8°C 39.6°F4.2°C 78% 3.5 mph WSW5.6 kmh WSW 11.0 mph17.7 kmh 29.85 in1010.8 mb 0.00 in0.0 mm 0.00 in/hr0.0 mm/hr 0.00 in0.0 mm
06:45 PM 45.5°F7.5°C 39.4°F4.1°C 79% 3.1 mph SSW5.0 kmh SSW 7.4 mph11.9 kmh 29.85 in1010.8 mb 0.00 in0.0 mm 0.00 in/hr0.0 mm/hr 0.00 in0.0 mm
07:00 PM 45.1°F7.3°C 39.7°F4.3°C 81% 4.1 mph S6.6 kmh S 13.0 mph20.9 kmh 29.85 in1010.8 mb 0.00 in0.0 mm 0.00 in/hr0.0 mm/hr 0.00 in0.0 mm
07:15 PM 44.8°F7.1°C 39.6°F4.2°C 82% 5.2 mph S8.4 kmh S 15.9 mph25.6 kmh 29.84 in1010.5 mb 0.00 in0.0 mm 0.00 in/hr0.0 mm/hr 0.00 in0.0 mm
07:30 PM 44.4°F6.9°C 39.3°F4.1°C 82% 4.9 mph S7.9 kmh S 14.3 mph23.0 kmh 29.84 in1010.5 mb 0.00 in0.0 mm 0.00 in/hr0.0 mm/hr 0.00 in0.0 mm
07:45 PM 44.4°F6.9°C 39.6°F4.2°C 83% 4.2 mph SSW6.8 kmh SSW 13.9 mph22.4 kmh 29.85 in1010.8 mb 0.00 in0.0 mm 0.00 in/hr0.0 mm/hr 0.00 in0.0 mm
08:00 PM 44.4°F6.9°C 39.6°F4.2°C 83% 4.6 mph S7.4 kmh S 14.1 mph22.7 kmh 29.85 in1010.8 mb 0.00 in0.0 mm 0.00 in/hr0.0 mm/hr 0.00 in0.0 mm
08:15 PM 44.4°F6.9°C 39.6°F4.2°C 83% 4.8 mph SW7.7 kmh SW 15.9 mph25.6 kmh 29.85 in1010.8 mb 0.00 in0.0 mm 0.00 in/hr0.0 mm/hr 0.00 in0.0 mm
08:30 PM 44.2°F6.8°C 39.4°F4.1°C 83% 4.0 mph S6.4 kmh S 9.8 mph15.8 kmh 29.86 in1011.2 mb 0.00 in0.0 mm 0.00 in/hr0.0 mm/hr 0.00 in0.0 mm
08:45 PM 43.9°F6.6°C 39.1°F3.9°C 83% 3.7 mph SW6.0 kmh SW 7.8 mph12.6 kmh 29.86 in1011.2 mb 0.00 in0.0 mm 0.00 in/hr0.0 mm/hr 0.00 in0.0 mm
09:00 PM 43.7°F6.5°C 39.2°F4.0°C 84% 4.7 mph SSW7.6 kmh SSW 11.6 mph18.7 kmh 29.86 in1011.2 mb 0.00 in0.0 mm 0.00 in/hr0.0 mm/hr 0.00 in0.0 mm
09:15 PM 43.5°F6.4°C 39.0°F3.9°C 84% 3.8 mph SSW6.1 kmh SSW 14.3 mph23.0 kmh 29.86 in1011.2 mb 0.00 in0.0 mm 0.00 in/hr0.0 mm/hr 0.00 in0.0 mm
09:30 PM 43.3°F6.3°C 39.1°F3.9°C 85% 4.3 mph WSW6.9 kmh WSW 9.6 mph15.4 kmh 29.86 in1011.2 mb 0.00 in0.0 mm 0.00 in/hr0.0 mm/hr 0.00 in0.0 mm
09:45 PM 43.3°F6.3°C 39.1°F3.9°C 85% 3.2 mph W5.1 kmh W 10.5 mph16.9 kmh 29.87 in1011.5 mb 0.00 in0.0 mm 0.00 in/hr0.0 mm/hr 0.00 in0.0 mm
10:00 PM 43.2°F6.2°C 39.0°F3.9°C 85% 3.3 mph N5.3 kmh N 16.6 mph26.7 kmh 29.88 in1011.9 mb 0.00 in0.0 mm 0.00 in/hr0.0 mm/hr 0.00 in0.0 mm
10:15 PM 43.2°F6.2°C 39.0°F3.9°C 85% 2.4 mph NNW3.9 kmh NNW 7.8 mph12.6 kmh 29.89 in1012.2 mb 0.00 in0.0 mm 0.00 in/hr0.0 mm/hr 0.00 in0.0 mm
10:30 PM 43.2°F6.2°C 39.0°F3.9°C 85% 2.9 mph W4.7 kmh W 9.2 mph14.8 kmh 29.88 in1011.9 mb 0.00 in0.0 mm 0.00 in/hr0.0 mm/hr 0.00 in0.0 mm
10:45 PM 43.2°F6.2°C 39.0°F3.9°C 85% 3.2 mph WSW5.1 kmh WSW 9.8 mph15.8 kmh 29.87 in1011.5 mb 0.00 in0.0 mm 0.00 in/hr0.0 mm/hr 0.00 in0.0 mm
11:00 PM 43.2°F6.2°C 39.0°F3.9°C 85% 3.9 mph WSW6.3 kmh WSW 10.7 mph17.2 kmh 29.87 in1011.5 mb 0.00 in0.0 mm 0.00 in/hr0.0 mm/hr 0.00 in0.0 mm
11:15 PM 43.2°F6.2°C 39.0°F3.9°C 85% 3.9 mph SSW6.3 kmh SSW 11.4 mph18.3 kmh 29.88 in1011.9 mb 0.00 in0.0 mm 0.00 in/hr0.0 mm/hr 0.00 in0.0 mm
11:30 PM 43.2°F6.2°C 39.0°F3.9°C 85% 3.7 mph SSW6.0 kmh SSW 11.9 mph19.2 kmh 29.88 in1011.9 mb 0.00 in0.0 mm 0.00 in/hr0.0 mm/hr 0.00 in0.0 mm
11:45 PM 43.0°F6.1°C 39.1°F3.9°C 86% 2.3 mph S3.7 kmh S 7.8 mph12.6 kmh 29.89 in1012.2 mb 0.00 in0.0 mm 0.00 in/hr0.0 mm/hr 0.00 in0.0 mm